createdAt,value
2022-09-27T00:02:00.242Z,99969.09
2022-09-27T00:04:28.711Z,99977.97
2022-09-27T00:06:56.725Z,99978.91
2022-09-27T00:09:25.858Z,99972.13
2022-09-27T00:11:53.859Z,99951.44
2022-09-27T00:14:21.920Z,99950.03
2022-09-27T00:16:50.150Z,99958.72
2022-09-27T00:19:20.592Z,99950.97
2022-09-27T00:21:49.328Z,99945.78
2022-09-27T00:24:20.716Z,99951.78
2022-09-27T00:26:49.425Z,99950.47
2022-09-27T00:29:19.414Z,99943.63
2022-09-27T00:31:49.255Z,99947.06
2022-09-27T00:34:23.262Z,99944.47
2022-09-27T00:36:52.302Z,99924.78
2022-09-27T00:39:21.029Z,99930.13
2022-09-27T00:41:49.339Z,99891.28
2022-09-27T00:44:27.539Z,99916.75
2022-09-27T00:47:12.935Z,99922.75
2022-09-27T00:49:49.182Z,99915.34
2022-09-27T00:52:33.156Z,99909.69
2022-09-27T00:55:10.914Z,99921.53
2022-09-27T00:57:39.261Z,99929.22
2022-09-27T01:00:12.542Z,99934.28
2022-09-27T01:02:45.138Z,99933.47
2022-09-27T01:05:18.830Z,99921.44
2022-09-27T01:07:46.760Z,99921.53
2022-09-27T01:10:17.303Z,99917.84
2022-09-27T01:13:03.469Z,99917.63
2022-09-27T01:16:08.716Z,99915.06
2022-09-27T01:19:11.528Z,99915.63
2022-09-27T01:22:18.435Z,99919.78
2022-09-27T01:24:59.028Z,99921.34
2022-09-27T01:28:10.184Z,99921.09
2022-09-27T01:30:44.019Z,99901.41
2022-09-27T01:33:20.025Z,99907.22
2022-09-27T01:36:06.426Z,99906.38
2022-09-27T01:39:21.103Z,99896.59
2022-09-27T01:42:03.613Z,99904.38
2022-09-27T01:44:36.150Z,99896.50
2022-09-27T01:47:17.589Z,99898.34
2022-09-27T01:50:03.541Z,99899.84
2022-09-27T01:52:56.125Z,99890.13
2022-09-27T01:55:32.679Z,99895.97
2022-09-27T01:58:08.156Z,99892.34
2022-09-27T02:00:39.385Z,99895.88
2022-09-27T02:03:14.078Z,99889.78
2022-09-27T02:05:48.181Z,99879.13
2022-09-27T02:08:42.823Z,99873.63
2022-09-27T02:11:14.596Z,99881.13
2022-09-27T02:14:46.585Z,99873.16
2022-09-27T02:17:33.410Z,99872.88
2022-09-27T02:20:32.219Z,99868.53
2022-09-27T02:23:17.026Z,99864.00
2022-09-27T02:26:12.911Z,99859.84
2022-09-27T02:28:48.421Z,99854.56
2022-09-27T02:31:16.976Z,99852.63
2022-09-27T02:34:03.712Z,99848.81
2022-09-27T02:36:31.948Z,99847.34
2022-09-27T02:39:00.971Z,99839.56
2022-09-27T02:41:29.149Z,99844.47
2022-09-27T02:44:03.375Z,99807.88
2022-09-27T02:46:37.618Z,99838.38
2022-09-27T02:49:32.801Z,99844.19
2022-09-27T02:52:14.123Z,99844.63
2022-09-27T02:55:14.674Z,99841.13
2022-09-27T02:58:05.977Z,99832.50
2022-09-27T03:00:51.924Z,99825.47
2022-09-27T03:03:55.045Z,99817.59
2022-09-27T03:06:25.755Z,99817.88
2022-09-27T03:08:54.015Z,99822.25
2022-09-27T03:11:23.999Z,99819.91
2022-09-27T03:14:07.848Z,99805.66
2022-09-27T03:16:37.200Z,99807.56
2022-09-27T03:19:05.328Z,99797.53
2022-09-27T03:21:33.383Z,99813.09
2022-09-27T03:24:01.723Z,99808.75
2022-09-27T03:26:30.238Z,99806.25
2022-09-27T03:28:58.300Z,99783.75
2022-09-27T03:31:28.009Z,99795.81
2022-09-27T03:33:56.367Z,99782.56
2022-09-27T03:36:24.402Z,99779.97
2022-09-27T03:38:54.080Z,99782.06
2022-09-27T03:41:21.745Z,99773.06
2022-09-27T03:43:49.790Z,99771.44
2022-09-27T03:46:19.009Z,99766.22
2022-09-27T03:48:47.058Z,99758.25
2022-09-27T03:51:15.094Z,99762.44
2022-09-27T03:53:48.898Z,99759.34
2022-09-27T03:56:16.854Z,99768.63
2022-09-27T03:58:45.933Z,99760.75
2022-09-27T04:01:15.510Z,99759.50
2022-09-27T04:03:43.611Z,99754.41
2022-09-27T04:06:15.680Z,99742.03
2022-09-27T04:08:44.107Z,99750.56
2022-09-27T04:11:12.025Z,99756.06
2022-09-27T04:13:40.154Z,99744.22
2022-09-27T04:16:08.668Z,99738.47
2022-09-27T04:18:36.924Z,99742.31
2022-09-27T04:21:05.335Z,99727.94
2022-09-27T04:23:36.015Z,99729.94
2022-09-27T04:26:04.594Z,99714.13
2022-09-27T04:28:32.884Z,99732.91
2022-09-27T04:31:02.666Z,99714.16
2022-09-27T04:33:30.274Z,99719.97
2022-09-27T04:36:16.862Z,99715.50
2022-09-27T04:38:44.781Z,99713.22
2022-09-27T04:41:12.654Z,99709.25
2022-09-27T04:43:40.752Z,99707.25
2022-09-27T04:46:32.275Z,99704.88
2022-09-27T04:49:02.195Z,99703.63
2022-09-27T04:51:30.166Z,99712.78
2022-09-27T04:53:59.048Z,99706.31
2022-09-27T04:56:30.569Z,99701.84
2022-09-27T04:58:59.313Z,99721.31
2022-09-27T05:01:27.385Z,99725.88
2022-09-27T05:03:56.920Z,99715.47
2022-09-27T05:06:25.062Z,99708.72
2022-09-27T05:08:54.143Z,99706.34
2022-09-27T05:11:23.078Z,99705.19
2022-09-27T05:13:51.021Z,99704.47
2022-09-27T05:16:20.628Z,99701.75
2022-09-27T05:18:49.520Z,99695.59
2022-09-27T05:21:18.205Z,99683.09
2022-09-27T05:23:47.906Z,99704.97
2022-09-27T05:26:17.163Z,99700.13
2022-09-27T05:28:47.847Z,99676.94
2022-09-27T05:31:17.046Z,99690.31
2022-09-27T05:33:46.754Z,99673.28
2022-09-27T05:36:15.850Z,99672.31
2022-09-27T05:38:44.117Z,99687.69
2022-09-27T05:41:12.363Z,99680.50
2022-09-27T05:43:40.433Z,99667.41
2022-09-27T05:46:08.600Z,99687.28
2022-09-27T05:48:38.151Z,99674.47
2022-09-27T05:51:06.395Z,99676.25
2022-09-27T05:53:34.349Z,99679.56
2022-09-27T05:56:04.823Z,99682.22
2022-09-27T05:58:33.190Z,99678.06
2022-09-27T06:01:01.331Z,99670.50
2022-09-27T06:03:30.939Z,99653.09
2022-09-27T06:06:06.571Z,99664.94
2022-09-27T06:08:40.106Z,99667.97
2022-09-27T06:11:13.180Z,99656.59
2022-09-27T06:13:41.536Z,99638.03
2022-09-27T06:16:12.398Z,99647.16
2022-09-27T06:18:59.056Z,99652.00
2022-09-27T06:21:29.601Z,99652.13
2022-09-27T06:24:01.124Z,99649.03
2022-09-27T06:26:29.217Z,99656.53
2022-09-27T06:28:57.755Z,99643.06
2022-09-27T06:31:25.748Z,99637.97
2022-09-27T06:33:53.815Z,99648.72
2022-09-27T06:36:22.113Z,99645.38
2022-09-27T06:38:50.435Z,99631.56
2022-09-27T06:41:18.582Z,99645.03
2022-09-27T06:43:47.990Z,99630.38
2022-09-27T06:46:16.255Z,99628.09
2022-09-27T06:48:53.599Z,99630.91
2022-09-27T06:51:24.678Z,99632.31
2022-09-27T06:53:52.613Z,99619.94
2022-09-27T06:56:20.524Z,99621.38
2022-09-27T06:59:08.735Z,99606.09
2022-09-27T07:01:36.921Z,99612.72
2022-09-27T07:04:06.576Z,99611.53
2022-09-27T07:06:37.543Z,99617.84
2022-09-27T07:09:07.333Z,99620.31
2022-09-27T07:11:37.433Z,99603.63
2022-09-27T07:14:08.166Z,99605.41
2022-09-27T07:16:36.227Z,99606.47
2022-09-27T07:19:08.422Z,99611.78
2022-09-27T07:21:37.249Z,99602.69
2022-09-27T07:24:05.211Z,99605.19
2022-09-27T07:26:33.204Z,99604.59
2022-09-27T07:29:04.136Z,99598.56
2022-09-27T07:31:32.144Z,99601.06
2022-09-27T07:34:00.091Z,99599.03
2022-09-27T07:36:29.986Z,99592.41
2022-09-27T07:39:00.647Z,99598.44
2022-09-27T07:41:28.612Z,99591.81
2022-09-27T07:43:58.094Z,99592.38
2022-09-27T07:46:26.754Z,99579.22
2022-09-27T07:48:54.917Z,99566.69
2022-09-27T07:51:23.934Z,99570.44
2022-09-27T07:53:51.964Z,99575.03
2022-09-27T07:56:19.915Z,99568.53
2022-09-27T07:58:48.095Z,99565.28
2022-09-27T08:01:16.130Z,99573.44
2022-09-27T08:03:45.484Z,99576.75
2022-09-27T08:06:13.962Z,99564.78
2022-09-27T08:08:42.144Z,99562.19
2022-09-27T08:11:37.067Z,99559.19
2022-09-27T08:14:05.904Z,99563.66
2022-09-27T08:16:36.924Z,99558.78
2022-09-27T08:19:05.201Z,99557.59
2022-09-27T08:21:33.187Z,99572.16
2022-09-27T08:24:01.847Z,99565.84
2022-09-27T08:26:30.902Z,99570.13
2022-09-27T08:28:58.841Z,99564.66
2022-09-27T08:31:26.891Z,99565.34
2022-09-27T08:33:55.795Z,99569.63
2022-09-27T08:36:24.807Z,99568.91
2022-09-27T08:38:53.269Z,99564.06
2022-09-27T08:41:36.067Z,99561.91
2022-09-27T08:44:30.189Z,99561.91
2022-09-27T08:47:13.125Z,99571.69
2022-09-27T08:49:52.891Z,99567.72
2022-09-27T08:52:32.168Z,99570.19
2022-09-27T08:55:05.200Z,99575.16
2022-09-27T08:57:33.254Z,99562.84
2022-09-27T09:00:13.589Z,99569.22
2022-09-27T09:03:01.083Z,99583.78
2022-09-27T09:05:37.813Z,99584.59
2022-09-27T09:08:23.010Z,99581.03
2022-09-27T09:11:54.017Z,99585.66
2022-09-27T09:14:28.720Z,99588.28
2022-09-27T09:17:20.596Z,99596.97
2022-09-27T09:20:01.401Z,99601.47
2022-09-27T09:23:24.023Z,99601.59
2022-09-27T09:26:11.045Z,99600.41
2022-09-27T09:28:48.671Z,99600.19
2022-09-27T09:31:43.178Z,99598.66
2022-09-27T09:34:36.965Z,99605.06
2022-09-27T09:37:17.982Z,99611.56
2022-09-27T09:40:06.704Z,99609.69
2022-09-27T09:42:45.243Z,99609.44
2022-09-27T09:45:44.340Z,99611.69
2022-09-27T09:48:37.576Z,99603.06
2022-09-27T09:51:12.889Z,99617.97
2022-09-27T09:53:48.514Z,99621.88
2022-09-27T09:56:29.929Z,99622.22
2022-09-27T09:59:03.082Z,99618.22
2022-09-27T10:01:45.782Z,99617.63
2022-09-27T10:04:22.205Z,99612.88
2022-09-27T10:06:51.255Z,99617.97
2022-09-27T10:09:27.181Z,99619.88
2022-09-27T10:11:55.293Z,99620.81
2022-09-27T10:14:23.707Z,99616.41
2022-09-27T10:16:59.445Z,99622.81
2022-09-27T10:19:34.295Z,99621.63
2022-09-27T10:22:27.375Z,99627.09
2022-09-27T10:24:57.326Z,99637.84
2022-09-27T10:27:29.455Z,99637.09
2022-09-27T10:30:00.522Z,99642.94
2022-09-27T10:32:40.021Z,99652.72
2022-09-27T10:35:37.450Z,99659.56
2022-09-27T10:38:23.912Z,99645.13
2022-09-27T10:40:55.981Z,99657.31
2022-09-27T10:43:31.542Z,99657.53
2022-09-27T10:46:36.280Z,99653.41
2022-09-27T10:49:33.155Z,99663.22
2022-09-27T10:52:08.929Z,99676.34
2022-09-27T10:54:42.045Z,99667.69
2022-09-27T10:57:19.465Z,99673.13
2022-09-27T10:59:58.159Z,99679.88
2022-09-27T11:02:30.298Z,99686.03
2022-09-27T11:05:31.780Z,99690.88
2022-09-27T11:08:03.631Z,99690.16
2022-09-27T11:10:37.003Z,99687.69
2022-09-27T11:13:18.187Z,99691.22
2022-09-27T11:15:58.186Z,99693.34
2022-09-27T11:18:45.377Z,99703.03
2022-09-27T11:21:28.892Z,99704.09
2022-09-27T11:24:38.922Z,99713.53
2022-09-27T11:27:41.558Z,99721.56
2022-09-27T11:30:12.450Z,99724.75
2022-09-27T11:33:15.153Z,99724.97
2022-09-27T11:36:06.066Z,99733.06
2022-09-27T11:39:19.532Z,99736.59
2022-09-27T11:42:03.487Z,99741.91
2022-09-27T11:47:58.570Z,99732.19
2022-09-27T11:50:37.226Z,99751.31
2022-09-27T11:53:36.084Z,99746.34
2022-09-27T11:56:09.733Z,99747.06
2022-09-27T11:58:40.585Z,99748.84
2022-09-27T12:01:35.808Z,99755.59
2022-09-27T12:04:36.655Z,99750.38
2022-09-27T12:07:41.092Z,99764.31
2022-09-27T12:10:17.586Z,99768.81
2022-09-27T12:12:52.731Z,99773.28
2022-09-27T12:15:34.599Z,99768.81
2022-09-27T12:18:14.059Z,99769.97
2022-09-27T12:20:44.278Z,99774.44
2022-09-27T12:23:21.315Z,99776.31
2022-09-27T12:25:53.953Z,99784.13
2022-09-27T12:28:43.001Z,99789.31
2022-09-27T12:31:36.507Z,99792.75
2022-09-27T12:34:29.520Z,99796.50
2022-09-27T12:37:17.614Z,99796.00
2022-09-27T12:40:00.510Z,99788.31
2022-09-27T12:42:37.237Z,99803.41
2022-09-27T12:45:05.894Z,99746.09
2022-09-27T12:48:12.706Z,99802.38
2022-09-27T12:50:45.624Z,99809.41
2022-09-27T12:53:40.974Z,99819.28
2022-09-27T12:56:14.904Z,99819.50
2022-09-27T12:59:04.253Z,99816.09
2022-09-27T13:02:08.928Z,99833.66
2022-09-27T13:04:59.427Z,99827.41
2022-09-27T13:07:54.399Z,99827.63
2022-09-27T13:10:43.482Z,99830.44
2022-09-27T13:13:15.066Z,99830.63
2022-09-27T13:15:46.502Z,99834.47
2022-09-27T13:18:36.254Z,99838.53
2022-09-27T13:21:05.335Z,99839.56
2022-09-27T13:23:33.324Z,99841.56
2022-09-27T13:26:04.627Z,99805.94
2022-09-27T13:28:32.689Z,99833.34
2022-09-27T13:31:02.937Z,99836.34
2022-09-27T13:33:51.455Z,99842.50
2022-09-27T13:36:27.060Z,99842.78
2022-09-27T13:39:12.093Z,99848.72
2022-09-27T13:41:46.605Z,99846.44
2022-09-27T13:44:33.148Z,99844.09
2022-09-27T13:47:16.337Z,99840.06
2022-09-27T13:49:50.915Z,99841.81
2022-09-27T13:52:38.862Z,99840.25
2022-09-27T13:55:44.226Z,99846.91
2022-09-27T13:58:44.348Z,99841.72
2022-09-27T14:01:27.862Z,99840.56
2022-09-27T14:04:05.291Z,99844.66
2022-09-27T14:06:39.528Z,99834.19
2022-09-27T14:09:17.200Z,99843.63
2022-09-27T14:11:54.259Z,99839.38
2022-09-27T14:14:27.705Z,99836.31
2022-09-27T14:16:55.983Z,99825.72
2022-09-27T14:19:27.562Z,99846.63
2022-09-27T14:21:56.442Z,99831.44
2022-09-27T14:24:31.583Z,99834.38
2022-09-27T14:27:14.385Z,99840.69
2022-09-27T14:29:57.922Z,99838.50
2022-09-27T14:32:29.264Z,99846.50
2022-09-27T14:35:05.823Z,99831.63
2022-09-27T14:37:39.155Z,99846.38
2022-09-27T14:40:19.747Z,99848.34
2022-09-27T14:42:52.826Z,99851.97
2022-09-27T14:45:20.846Z,99857.97
2022-09-27T14:47:50.249Z,99842.81
2022-09-27T14:50:30.983Z,99847.38
2022-09-27T14:53:01.632Z,99849.25
2022-09-27T14:55:31.812Z,99850.56
2022-09-27T14:58:04.452Z,99852.97
2022-09-27T15:00:36.804Z,99852.34
2022-09-27T15:03:10.070Z,99861.16
2022-09-27T15:05:44.084Z,99870.03
2022-09-27T15:08:16.469Z,99853.09
2022-09-27T15:10:45.798Z,99858.78
2022-09-27T15:13:19.296Z,99855.84
2022-09-27T15:15:49.960Z,99865.38
2022-09-27T15:18:45.925Z,99866.41
2022-09-27T15:21:30.747Z,99866.81
2022-09-27T15:24:00.190Z,99860.16
2022-09-27T15:26:47.243Z,99860.16
2022-09-27T15:29:27.079Z,99862.84
2022-09-27T15:32:03.156Z,99851.81
2022-09-27T15:34:33.737Z,99860.00
2022-09-27T15:37:15.118Z,99862.69
2022-09-27T15:39:43.066Z,99857.59
2022-09-27T15:42:35.555Z,99812.47
2022-09-27T15:45:03.545Z,99859.41
2022-09-27T15:47:39.471Z,99862.09
2022-09-27T15:50:16.485Z,99851.94
2022-09-27T15:52:54.887Z,99853.69
2022-09-27T15:55:45.676Z,99858.88
2022-09-27T15:58:22.825Z,99854.53
2022-09-27T16:01:06.175Z,99857.22
2022-09-27T16:03:35.004Z,99855.44
2022-09-27T16:06:04.699Z,99857.09
2022-09-27T16:08:35.918Z,99860.53
2022-09-27T16:11:16.297Z,99850.16
2022-09-27T16:13:44.900Z,99855.16
2022-09-27T16:16:22.137Z,99862.00
2022-09-27T16:18:50.491Z,99859.50
2022-09-27T16:21:18.811Z,99865.81
2022-09-27T16:23:49.953Z,99860.09
2022-09-27T16:26:20.033Z,99861.28
2022-09-27T16:28:49.730Z,99846.78
2022-09-27T16:31:19.198Z,99854.28
2022-09-27T16:33:51.237Z,99869.09
2022-09-27T16:36:21.311Z,99860.56
2022-09-27T16:38:51.887Z,99862.72
2022-09-27T16:41:21.246Z,99858.09
2022-09-27T16:43:50.029Z,99850.50
2022-09-27T16:46:20.188Z,99847.69
2022-09-27T16:48:48.765Z,99845.31
2022-09-27T16:51:41.099Z,99799.72
2022-09-27T16:54:09.647Z,99835.31
2022-09-27T16:56:38.016Z,99841.31
2022-09-27T16:59:07.533Z,99843.91
2022-09-27T17:01:36.318Z,99840.41
2022-09-27T17:04:04.484Z,99832.34
2022-09-27T17:06:32.914Z,99849.44
2022-09-27T17:09:04.839Z,99843.91
2022-09-27T17:11:33.438Z,99853.41
2022-09-27T17:14:01.617Z,99847.78
2022-09-27T17:16:29.779Z,99843.63
2022-09-27T17:18:57.906Z,99841.47
2022-09-27T17:21:29.481Z,99863.09
2022-09-27T17:23:57.458Z,99851.22
2022-09-27T17:26:27.673Z,99851.75
2022-09-27T17:29:00.150Z,99858.50
2022-09-27T17:31:31.833Z,99868.19
2022-09-27T17:34:00.833Z,99866.53
2022-09-27T17:36:35.011Z,99865.78
2022-09-27T17:39:04.836Z,99849.22
2022-09-27T17:41:39.623Z,99853.56
2022-09-27T17:44:08.643Z,99845.41
2022-09-27T17:46:38.262Z,99863.25
2022-09-27T17:49:25.297Z,99857.25
2022-09-27T17:51:54.313Z,99863.25
2022-09-27T17:54:25.099Z,99849.97
2022-09-27T17:56:53.291Z,99859.88
2022-09-27T17:59:21.265Z,99865.63
2022-09-27T18:01:50.341Z,99858.03
2022-09-27T18:04:22.001Z,99859.88
2022-09-27T18:06:50.104Z,99861.81
2022-09-27T18:09:20.187Z,99861.72
2022-09-27T18:11:50.047Z,99861.16
2022-09-27T18:14:18.439Z,99859.50
2022-09-27T18:16:46.507Z,99853.31
2022-09-27T18:19:17.392Z,99863.91
2022-09-27T18:21:45.425Z,99858.44
2022-09-27T18:24:14.975Z,99868.50
2022-09-27T18:26:48.343Z,99866.69
2022-09-27T18:29:21.717Z,99868.44
2022-09-27T18:31:50.279Z,99872.19
2022-09-27T18:34:20.857Z,99872.09
2022-09-27T18:36:48.828Z,99882.94
2022-09-27T18:39:19.898Z,99872.75
2022-09-27T18:41:52.329Z,99880.91
2022-09-27T18:44:20.388Z,99883.16
2022-09-27T18:46:48.888Z,99873.94
2022-09-27T18:49:23.438Z,99857.59
2022-09-27T18:51:53.927Z,99868.59
2022-09-27T18:54:23.517Z,99869.59
2022-09-27T18:56:53.094Z,99871.09
2022-09-27T18:59:24.196Z,99868.69
2022-09-27T19:01:52.535Z,99868.13
2022-09-27T19:04:26.643Z,99876.06
2022-09-27T19:06:56.509Z,99873.47
2022-09-27T19:09:28.567Z,99875.31
2022-09-27T19:11:56.558Z,99871.16
2022-09-27T19:14:24.620Z,99865.41
2022-09-27T19:16:52.798Z,99868.66
2022-09-27T19:19:21.195Z,99863.75
2022-09-27T19:21:49.628Z,99865.44
2022-09-27T19:24:20.641Z,99870.69
2022-09-27T19:26:50.514Z,99865.28
2022-09-27T19:29:18.505Z,99857.78
2022-09-27T19:31:48.023Z,99871.28
2022-09-27T19:34:16.179Z,99861.03
2022-09-27T19:36:44.157Z,99852.50
2022-09-27T19:39:12.426Z,99836.34
2022-09-27T19:41:40.944Z,99872.28
2022-09-27T19:44:09.021Z,99870.69
2022-09-27T19:46:38.166Z,99880.97
2022-09-27T19:49:06.474Z,99869.59
2022-09-27T19:51:34.616Z,99869.53
2022-09-27T19:54:03.536Z,99857.44
2022-09-27T19:56:31.549Z,99854.94
2022-09-27T19:59:01.700Z,99861.91
2022-09-27T20:01:32.107Z,99858.31
2022-09-27T20:04:00.467Z,99862.47
2022-09-27T20:06:28.457Z,99846.47
2022-09-27T20:08:56.629Z,99859.03
2022-09-27T20:11:27.495Z,99841.28
2022-09-27T20:13:55.560Z,99847.78
2022-09-27T20:16:27.850Z,99854.63
2022-09-27T20:19:01.306Z,99849.34
2022-09-27T20:21:33.073Z,99851.09
2022-09-27T20:24:02.928Z,99848.44
2022-09-27T20:26:32.255Z,99835.50
2022-09-27T20:29:02.154Z,99832.91
2022-09-27T20:31:43.413Z,99844.19
2022-09-27T20:34:18.744Z,99827.09
2022-09-27T20:36:46.817Z,99841.59
2022-09-27T20:39:16.655Z,99833.84
2022-09-27T20:41:46.865Z,99828.84
2022-09-27T20:44:18.880Z,99829.03
2022-09-27T20:46:48.287Z,99834.28
2022-09-27T20:49:20.122Z,99838.63
2022-09-27T20:51:51.981Z,99840.28
2022-09-27T20:54:20.077Z,99842.69
2022-09-27T20:56:49.330Z,99842.53
2022-09-27T20:59:20.922Z,99844.94
2022-09-27T21:01:51.344Z,99850.84
2022-09-27T21:04:22.282Z,99847.25
2022-09-27T21:06:50.588Z,99843.75
2022-09-27T21:09:21.414Z,99842.91
2022-09-27T21:11:52.331Z,99835.78
2022-09-27T21:14:22.609Z,99840.88
2022-09-27T21:16:50.697Z,99850.22
2022-09-27T21:19:18.737Z,99840.69
2022-09-27T21:21:48.364Z,99835.47
2022-09-27T21:24:16.032Z,99849.06
2022-09-27T21:26:44.006Z,99832.28
2022-09-27T21:29:14.940Z,99831.03
2022-09-27T21:31:43.450Z,99810.94
2022-09-27T21:34:11.528Z,99811.50
2022-09-27T21:36:40.322Z,99802.34
2022-09-27T21:39:10.016Z,99819.13
2022-09-27T21:41:37.925Z,99813.84
2022-09-27T21:44:07.385Z,99790.88
2022-09-27T21:46:35.529Z,99812.44
2022-09-27T21:49:03.532Z,99812.25
2022-09-27T21:51:35.936Z,99815.00
2022-09-27T21:54:06.559Z,99826.94
2022-09-27T21:56:37.268Z,99821.84
2022-09-27T21:59:07.211Z,99822.34
2022-09-27T22:01:35.974Z,99821.44
2022-09-27T22:04:07.222Z,99822.25
2022-09-27T22:06:37.589Z,99813.66
2022-09-27T22:09:14.157Z,99807.84
2022-09-27T22:11:54.292Z,99811.16
2022-09-27T22:14:23.984Z,99802.66
2022-09-27T22:16:52.033Z,99808.22
2022-09-27T22:19:21.433Z,99808.97
2022-09-27T22:21:49.513Z,99814.97
2022-09-27T22:24:18.961Z,99812.38
2022-09-27T22:26:50.292Z,99809.72
2022-09-27T22:29:18.750Z,99807.13
2022-09-27T22:31:47.057Z,99810.53
2022-09-27T22:34:29.480Z,99804.53
2022-09-27T22:36:59.444Z,99798.53
2022-09-27T22:39:27.906Z,99800.94
2022-09-27T22:41:56.082Z,99773.28
2022-09-27T22:44:24.054Z,99786.97
2022-09-27T22:46:52.169Z,99769.78
2022-09-27T22:49:20.411Z,99784.38
2022-09-27T22:51:48.366Z,99780.97
2022-09-27T22:54:16.627Z,99778.38
2022-09-27T22:56:46.019Z,99778.38
2022-09-27T22:59:14.119Z,99778.38
2022-09-27T23:01:42.195Z,99786.97
2022-09-27T23:04:10.411Z,99786.97
2022-09-27T23:06:40.601Z,99796.50
2022-09-27T23:09:10.152Z,99772.09
2022-09-27T23:11:38.949Z,99781.25
2022-09-27T23:14:08.496Z,99737.97
2022-09-27T23:16:38.287Z,99771.34
2022-09-27T23:19:10.040Z,99773.56
2022-09-27T23:21:38.707Z,99777.00
2022-09-27T23:24:07.096Z,99774.41
2022-09-27T23:27:34.071Z,99775.41
2022-09-27T23:30:02.105Z,99780.50
2022-09-27T23:32:32.445Z,99773.84
2022-09-27T23:35:00.643Z,99771.34
2022-09-27T23:37:28.731Z,99775.50
2022-09-27T23:39:56.765Z,99778.09
2022-09-27T23:42:24.922Z,99766.19
2022-09-27T23:44:53.219Z,99779.22
2022-09-27T23:47:21.168Z,99772.38
2022-09-27T23:49:50.184Z,99780.03
2022-09-27T23:52:18.111Z,99750.25
2022-09-27T23:54:46.335Z,99760.19
2022-09-27T23:57:15.969Z,99763.59
2022-09-27T23:59:43.669Z,99757.59
